Time;durP1;ratioP1;P1;durP2;ratioP2;P2;SDS_P1;SDS_P2;PMS_P1;PMS_P2;Temp;Humidity;BMP_temperature;BMP_pressure;BME280_temperature;BME280_humidity;BME280_pressure;Samples;Min_cycle;Max_cycle;Signal;HPM_P1;HPM_P2
2023/02/27 00:02:28;;;;;;;2.30;0.60;;;1.50;84.10;;;;;;5051107;28;20056;-89
2023/02/27 00:05:54;;;;;;;0.75;0.30;;;1.50;84.30;;;;;;5065994;28;20048;-89
2023/02/27 00:08:31;;;;;;;1.37;0.20;;;1.50;84.20;;;;;;5063403;28;20048;-89
2023/02/27 00:11:27;;;;;;;1.60;0.30;;;1.40;84.30;;;;;;5069772;28;20045;-89
2023/02/27 00:14:09;;;;;;;0.77;0.37;;;1.40;84.40;;;;;;5052115;28;20127;-89
2023/02/27 00:16:38;;;;;;;1.50;0.50;;;1.40;84.60;;;;;;5075180;28;20035;-89
2023/02/27 00:19:10;;;;;;;2.10;0.40;;;1.30;84.70;;;;;;5056386;28;20135;-90
2023/02/27 00:21:43;;;;;;;2.23;0.40;;;1.30;84.70;;;;;;5073384;28;20413;-89
2023/02/27 00:24:37;;;;;;;1.10;0.33;;;1.30;84.70;;;;;;5057808;28;20040;-90
2023/02/27 00:27:07;;;;;;;1.33;0.28;;;1.40;84.80;;;;;;5060406;28;20044;-90
2023/02/27 00:29:42;;;;;;;1.10;0.30;;;1.30;84.70;;;;;;5078504;28;20064;-90
2023/02/27 00:32:11;;;;;;;1.17;0.20;;;1.40;84.80;;;;;;5052845;28;20060;-89
2023/02/27 00:34:38;;;;;;;1.37;0.30;;;1.40;84.80;;;;;;5049955;28;20053;-89
2023/02/27 00:37:09;;;;;;;1.47;0.30;;;1.40;84.80;;;;;;5056374;28;20068;-89
2023/02/27 00:39:37;;;;;;;2.43;0.50;;;1.30;84.80;;;;;;5072576;28;20068;-89
2023/02/27 00:42:18;;;;;;;1.23;0.23;;;1.30;84.80;;;;;;5059785;28;20055;-89
2023/02/27 00:44:55;;;;;;;1.27;0.40;;;1.30;84.90;;;;;;5047864;28;20111;-89
2023/02/27 00:47:29;;;;;;;1.57;0.20;;;1.30;84.80;;;;;;5036997;28;20433;-89
2023/02/27 00:50:07;;;;;;;1.07;0.30;;;1.40;84.80;;;;;;5052282;28;20063;-89
2023/02/27 00:52:47;;;;;;;2.43;0.30;;;1.30;84.70;;;;;;5056252;28;20494;-89
2023/02/27 00:55:36;;;;;;;0.50;0.20;;;1.30;84.80;;;;;;5072262;28;20051;-89
2023/02/27 00:58:44;;;;;;;0.83;0.30;;;1.30;84.80;;;;;;5067987;28;20040;-90
2023/02/27 01:04:18;;;;;;;0.83;0.20;;;1.30;85.00;;;;;;5059167;28;20037;-90
2023/02/27 01:07:06;;;;;;;1.77;0.53;;;1.30;85.10;;;;;;5076880;28;20486;-90
2023/02/27 01:09:43;;;;;;;0.30;0.10;;;1.30;85.10;;;;;;5086161;28;20084;-89
2023/02/27 01:12:10;;;;;;;1.37;0.20;;;1.20;85.20;;;;;;5058911;28;20051;-89
2023/02/27 01:14:43;;;;;;;0.40;0.10;;;1.20;85.30;;;;;;5075136;28;20052;-89
2023/02/27 01:17:13;;;;;;;0.83;0.10;;;1.20;85.40;;;;;;5077658;28;20497;-89
2023/02/27 01:19:53;;;;;;;0.23;0.10;;;1.20;85.40;;;;;;5077293;28;20041;-90
2023/02/27 01:22:47;;;;;;;1.23;0.10;;;1.10;85.50;;;;;;5056439;28;20128;-90
2023/02/27 01:25:16;;;;;;;1.10;0.20;;;1.20;85.60;;;;;;5046502;28;20041;-90
2023/02/27 01:28:11;;;;;;;0.77;0.10;;;1.10;85.60;;;;;;5058574;28;20299;-91
2023/02/27 01:31:49;;;;;;;0.40;0.10;;;1.10;85.70;;;;;;5023117;28;20375;-90
2023/02/27 01:34:40;;;;;;;0.67;0.10;;;1.10;85.70;;;;;;5014306;28;20075;-90
2023/02/27 01:37:45;;;;;;;0.47;0.10;;;1.10;85.80;;;;;;5016432;28;20516;-90
2023/02/27 01:40:44;;;;;;;0.70;0.15;;;1.10;85.80;;;;;;5037551;28;20033;-90
2023/02/27 01:43:16;;;;;;;0.67;0.20;;;1.10;85.90;;;;;;5017916;28;20089;-89
2023/02/27 01:46:04;;;;;;;0.83;0.17;;;1.00;85.80;;;;;;5044394;28;20042;-91
2023/02/27 01:48:44;;;;;;;0.20;0.10;;;1.10;85.80;;;;;;5084864;28;20056;-90
2023/02/27 01:51:30;;;;;;;0.67;0.20;;;1.10;85.80;;;;;;5062922;28;20083;-90
2023/02/27 01:54:20;;;;;;;;;;;1.00;85.80;;;;;;5070865;28;20057;-90
2023/02/27 01:57:12;;;;;;;0.67;0.17;;;1.00;86.00;;;;;;5078411;28;19924;-90
2023/02/27 02:00:04;;;;;;;0.90;0.20;;;0.90;86.00;;;;;;5075553;28;20094;-90
2023/02/27 02:03:15;;;;;;;0.60;0.20;;;0.90;86.00;;;;;;5061367;28;20052;-90
2023/02/27 02:05:45;;;;;;;0.60;0.10;;;1.00;86.20;;;;;;5074256;28;20049;-90
2023/02/27 02:08:32;;;;;;;1.33;0.30;;;0.90;86.30;;;;;;5082316;28;20052;-90
2023/02/27 02:11:16;;;;;;;0.67;0.10;;;0.90;86.30;;;;;;5044558;28;20091;-91
2023/02/27 02:13:52;;;;;;;0.27;0.10;;;0.90;86.30;;;;;;5081242;28;20041;-91
2023/02/27 02:16:54;;;;;;;;;;;;;;;;;;;;;
2023/02/27 02:19:37;;;;;;;0.30;0.13;;;0.90;86.30;;;;;;5073139;28;20413;-90
2023/02/27 02:22:40;;;;;;;0.43;0.10;;;0.90;86.50;;;;;;5054090;28;20044;-90
2023/02/27 02:25:40;;;;;;;1.80;0.20;;;0.90;86.80;;;;;;5043354;28;20131;-90
2023/02/27 02:28:42;;;;;;;0.67;0.20;;;0.80;86.60;;;;;;5040497;28;20136;-89
2023/02/27 02:31:17;;;;;;;1.60;0.50;;;0.80;86.60;;;;;;5075489;28;20040;-90
2023/02/27 02:34:01;;;;;;;1.93;0.37;;;0.80;86.70;;;;;;5062939;28;20058;-90
2023/02/27 02:37:12;;;;;;;0.80;0.10;;;0.80;86.70;;;;;;5074726;28;20056;-90
2023/02/27 02:40:07;;;;;;;0.40;0.10;;;0.80;86.70;;;;;;5068210;28;20045;-90
2023/02/27 02:42:48;;;;;;;0.67;0.30;;;0.80;86.80;;;;;;5064635;28;20215;-90
2023/02/27 02:45:34;;;;;;;0.77;0.20;;;0.70;86.90;;;;;;5060973;28;20539;-91
2023/02/27 02:48:29;;;;;;;1.67;0.20;;;0.70;87.00;;;;;;5074532;28;20091;-91
2023/02/27 02:51:28;;;;;;;2.80;0.40;;;0.70;87.10;;;;;;5060691;28;20132;-90
2023/02/27 02:54:24;;;;;;;0.90;0.23;;;0.70;87.30;;;;;;5060729;28;20084;-90
2023/02/27 02:57:31;;;;;;;0.90;0.30;;;0.70;87.40;;;;;;5068361;28;20091;-91
2023/02/27 03:00:30;;;;;;;1.30;0.53;;;0.70;87.40;;;;;;5074176;28;20463;-90
2023/02/27 03:03:22;;;;;;;1.80;0.30;;;0.70;87.50;;;;;;5063251;28;20044;-91
2023/02/27 03:06:34;;;;;;;1.23;0.30;;;0.60;87.50;;;;;;5070337;28;20091;-90
2023/02/27 03:09:18;;;;;;;0.40;0.23;;;0.60;87.70;;;;;;5084857;28;20091;-90
2023/02/27 03:12:20;;;;;;;0.77;0.30;;;0.60;88.30;;;;;;5058367;28;20041;-90
2023/02/27 03:15:05;;;;;;;0.40;0.20;;;0.50;87.80;;;;;;5049959;28;20045;-90
2023/02/27 03:18:17;;;;;;;1.10;0.20;;;0.50;88.00;;;;;;5066912;28;20520;-90
2023/02/27 03:21:13;;;;;;;0.60;0.40;;;0.50;88.10;;;;;;5051376;28;20110;-90
2023/02/27 03:24:02;;;;;;;0.57;0.10;;;0.50;88.20;;;;;;5047599;28;20041;-91
2023/02/27 03:27:03;;;;;;;1.20;0.37;;;0.50;88.20;;;;;;5054649;28;20037;-91
2023/02/27 03:33:24;;;;;;;0.60;0.27;;;0.50;88.20;;;;;;5054931;28;20040;-90
2023/02/27 03:36:26;;;;;;;1.23;0.30;;;0.40;88.30;;;;;;5073404;28;20491;-91
2023/02/27 03:39:13;;;;;;;1.83;0.30;;;0.40;88.40;;;;;;5065358;28;20068;-90
2023/02/27 03:42:02;;;;;;;1.00;0.20;;;0.40;88.40;;;;;;5074742;28;20048;-90
2023/02/27 03:45:42;;;;;;;0.47;0.13;;;0.30;88.60;;;;;;5052201;28;20076;-90
2023/02/27 03:48:18;;;;;;;1.80;0.10;;;0.30;88.70;;;;;;5042474;28;20080;-90
2023/02/27 03:50:58;;;;;;;0.37;0.20;;;0.20;88.90;;;;;;5069461;28;20136;-90
2023/02/27 03:54:07;;;;;;;0.73;0.10;;;0.20;89.00;;;;;;5082242;28;20553;-90
2023/02/27 03:57:01;;;;;;;0.80;0.20;;;0.20;89.10;;;;;;5057324;28;20048;-90
2023/02/27 03:59:40;;;;;;;1.40;0.30;;;0.20;89.10;;;;;;5045009;28;20041;-90
2023/02/27 04:02:15;;;;;;;0.77;0.20;;;0.20;89.30;;;;;;5057156;28;20044;-90
2023/02/27 04:04:51;;;;;;;1.80;0.30;;;0.10;89.30;;;;;;5078315;28;20133;-91
2023/02/27 04:08:02;;;;;;;0.73;0.20;;;0.10;89.40;;;;;;5048393;28;20059;-91
2023/02/27 04:11:15;;;;;;;2.23;0.20;;;0.10;89.40;;;;;;5071570;28;20044;-90
2023/02/27 04:14:25;;;;;;;0.43;0.20;;;0.10;90.00;;;;;;5056507;28;20045;-90
2023/02/27 04:17:14;;;;;;;1.00;0.20;;;0.10;89.60;;;;;;5058028;28;20141;-90
2023/02/27 04:20:03;;;;;;;0.70;0.20;;;0.10;89.60;;;;;;5069407;28;20136;-90
2023/02/27 04:22:51;;;;;;;0.93;0.13;;;0.10;89.70;;;;;;5067632;28;20064;-90
2023/02/27 04:25:40;;;;;;;1.47;0.30;;;0.10;89.80;;;;;;5071045;28;20132;-90
2023/02/27 04:28:16;;;;;;;1.10;0.30;;;0.10;89.80;;;;;;5072486;28;20040;-89
2023/02/27 04:31:01;;;;;;;1.02;0.20;;;0.10;89.90;;;;;;5072847;28;20044;-89
2023/02/27 04:33:47;;;;;;;1.37;0.20;;;0.20;89.80;;;;;;5072682;28;20079;-90
2023/02/27 04:36:46;;;;;;;0.77;0.23;;;0.20;89.70;;;;;;5073747;28;20510;-90
2023/02/27 04:40:04;;;;;;;0.37;0.20;;;0.20;89.80;;;;;;5065137;28;20049;-90
2023/02/27 04:42:44;;;;;;;1.43;0.30;;;0.20;89.80;;;;;;5072959;28;20049;-90
2023/02/27 04:45:20;;;;;;;0.80;0.20;;;0.20;89.90;;;;;;5074397;28;20040;-90
2023/02/27 04:47:59;;;;;;;0.43;0.10;;;0.10;89.90;;;;;;5059826;28;20049;-90
2023/02/27 04:50:48;;;;;;;0.60;0.20;;;0.20;90.00;;;;;;5055288;28;20056;-90
2023/02/27 04:53:25;;;;;;;0.90;0.20;;;0.20;90.00;;;;;;5068701;28;20053;-90
2023/02/27 04:56:32;;;;;;;1.17;0.38;;;0.20;90.00;;;;;;5044073;28;20509;-90
2023/02/27 04:59:19;;;;;;;1.80;0.20;;;0.20;90.10;;;;;;5070740;28;20060;-90
2023/02/27 05:01:58;;;;;;;1.40;0.20;;;0.10;90.10;;;;;;5072132;28;20309;-89
2023/02/27 05:04:34;;;;;;;0.47;0.10;;;0.10;90.10;;;;;;5072791;28;20052;-89
2023/02/27 05:07:11;;;;;;;1.27;0.20;;;0.10;90.10;;;;;;5055780;28;20072;-90
2023/02/27 05:10:24;;;;;;;1.63;0.60;;;0.10;90.10;;;;;;5052758;28;20041;-90
2023/02/27 05:13:39;;;;;;;0.93;0.20;;;0.10;90.10;;;;;;5071276;28;20089;-90
2023/02/27 05:16:40;;;;;;;1.30;0.23;;;0.10;90.20;;;;;;5050334;28;20137;-90
2023/02/27 05:19:18;;;;;;;0.60;0.27;;;0.10;90.20;;;;;;5072147;28;20090;-91
2023/02/27 05:22:15;;;;;;;0.60;0.30;;;0.00;90.20;;;;;;5060677;28;20051;-90
2023/02/27 05:25:55;;;;;;;0.73;0.30;;;0.00;90.30;;;;;;5058881;28;20041;-91
2023/02/27 05:28:47;;;;;;;0.27;0.10;;;0.00;90.30;;;;;;5037017;28;20049;-90
2023/02/27 05:31:39;;;;;;;;;;;;;;;;;;;;;
2023/02/27 05:34:25;;;;;;;0.87;0.10;;;-0.10;90.40;;;;;;5055126;28;20099;-89
2023/02/27 05:37:30;;;;;;;0.63;0.20;;;-0.10;90.50;;;;;;5066185;28;20052;-89
2023/02/27 05:40:07;;;;;;;1.27;0.30;;;-0.10;90.50;;;;;;5073383;28;20041;-90
2023/02/27 05:42:40;;;;;;;0.32;0.10;;;-0.10;90.50;;;;;;5087503;28;20090;-89
2023/02/27 05:45:40;;;;;;;;;;;;;;;;;;;;;
2023/02/27 05:48:21;;;;;;;1.15;0.30;;;-0.10;90.50;;;;;;5076138;28;20048;-91
2023/02/27 05:50:58;;;;;;;1.97;0.33;;;-0.10;90.50;;;;;;5060399;28;20075;-91
2023/02/27 05:53:32;;;;;;;0.90;0.20;;;-0.10;90.60;;;;;;5088874;28;20041;-90
2023/02/27 05:56:04;;;;;;;0.50;0.20;;;-0.10;90.60;;;;;;5063902;28;20048;-90
2023/02/27 05:59:05;;;;;;;2.67;0.30;;;-0.10;90.60;;;;;;5074917;28;20052;-90
2023/02/27 06:02:02;;;;;;;0.87;0.37;;;-0.10;90.60;;;;;;5069271;28;20064;-90
2023/02/27 06:04:38;;;;;;;2.80;0.30;;;0.00;90.60;;;;;;5056020;28;20040;-90
2023/02/27 06:07:24;;;;;;;0.77;0.40;;;0.00;90.60;;;;;;5063163;28;20055;-89
2023/02/27 06:10:02;;;;;;;0.80;0.30;;;0.00;90.60;;;;;;5052371;28;20469;-90
2023/02/27 06:12:46;;;;;;;0.47;0.20;;;0.00;90.60;;;;;;5074758;28;20053;-87
2023/02/27 06:15:17;;;;;;;0.80;0.23;;;0.00;90.80;;;;;;5043336;28;20041;-87
2023/02/27 06:17:58;;;;;;;1.90;0.37;;;0.00;90.60;;;;;;5072030;28;20065;-87
2023/02/27 06:20:30;;;;;;;1.00;0.20;;;0.10;90.60;;;;;;5074979;28;20040;-87
2023/02/27 06:23:01;;;;;;;2.10;0.33;;;0.10;90.60;;;;;;5056398;28;20098;-87
2023/02/27 06:25:31;;;;;;;0.90;0.20;;;0.10;90.80;;;;;;5078571;28;20090;-87
2023/02/27 06:28:08;;;;;;;3.03;0.57;;;0.10;90.50;;;;;;5068935;28;20067;-87
2023/02/27 06:30:37;;;;;;;0.70;0.30;;;0.10;90.60;;;;;;5045871;28;20106;-87
2023/02/27 06:33:14;;;;;;;1.23;0.30;;;0.10;90.60;;;;;;5070812;28;20502;-87
2023/02/27 06:35:41;;;;;;;1.70;0.40;;;0.20;90.60;;;;;;5074757;28;20048;-87
2023/02/27 06:38:20;;;;;;;1.13;0.23;;;0.20;90.60;;;;;;5072539;28;20045;-87
2023/02/27 06:40:51;;;;;;;1.60;0.33;;;0.20;90.50;;;;;;5056936;28;20049;-87
2023/02/27 06:43:35;;;;;;;1.90;0.30;;;0.30;90.60;;;;;;5084827;28;20076;-88
2023/02/27 06:46:15;;;;;;;1.40;0.40;;;0.30;90.50;;;;;;5067947;28;20039;-88
2023/02/27 06:49:25;;;;;;;1.75;0.40;;;0.30;90.50;;;;;;5065861;28;20037;-87
2023/02/27 06:52:24;;;;;;;2.50;0.53;;;0.30;90.50;;;;;;5105995;28;20036;-87
2023/02/27 06:55:21;;;;;;;1.38;0.30;;;0.30;90.50;;;;;;5074298;28;20045;-87
2023/02/27 06:58:23;;;;;;;;;;;;;;;;;;;;;
2023/02/27 07:01:32;;;;;;;2.03;0.43;;;0.40;90.50;;;;;;5070588;28;20052;-87
2023/02/27 07:04:20;;;;;;;1.80;0.40;;;0.40;90.50;;;;;;5051593;28;20041;-87
2023/02/27 07:06:50;;;;;;;2.87;0.40;;;0.50;90.50;;;;;;5060841;28;20048;-87
2023/02/27 07:09:48;;;;;;;0.77;0.40;;;0.50;90.50;;;;;;5048474;28;20068;-87
2023/02/27 07:12:21;;;;;;;1.77;0.43;;;0.50;90.40;;;;;;5066044;28;20143;-87
2023/02/27 07:15:20;;;;;;;0.82;0.30;;;0.50;90.40;;;;;;5066900;28;20078;-87
2023/02/27 07:18:01;;;;;;;1.43;0.40;;;0.50;90.40;;;;;;5063957;28;20056;-88
2023/02/27 07:20:41;;;;;;;2.03;0.77;;;0.60;90.50;;;;;;5073618;28;20056;-87
2023/02/27 07:23:14;;;;;;;1.57;0.87;;;0.60;90.40;;;;;;5072852;28;20103;-88
2023/02/27 07:25:53;;;;;;;1.10;0.30;;;0.60;90.40;;;;;;5038022;28;20041;-87
2023/02/27 07:28:25;;;;;;;4.80;1.57;;;0.60;90.40;;;;;;5053033;28;20083;-88
2023/02/27 07:31:00;;;;;;;1.13;0.40;;;0.70;90.40;;;;;;5045821;28;20045;-88
2023/02/27 07:33:40;;;;;;;0.45;0.28;;;0.70;90.40;;;;;;5082317;28;20056;-87
2023/02/27 07:36:30;;;;;;;0.83;0.30;;;0.70;90.40;;;;;;5072849;28;20397;-87
2023/02/27 07:39:15;;;;;;;2.10;0.50;;;0.80;90.40;;;;;;5073440;28;20083;-88
2023/02/27 07:41:52;;;;;;;5.63;0.60;;;0.80;90.40;;;;;;5057462;28;20055;-90
2023/02/27 07:44:28;;;;;;;3.10;0.53;;;0.90;90.40;;;;;;5089131;28;20041;-90
2023/02/27 07:47:10;;;;;;;0.83;0.30;;;0.90;90.30;;;;;;5087978;28;20045;-90
2023/02/27 07:49:55;;;;;;;1.53;0.40;;;1.00;90.30;;;;;;5072205;28;20068;-90
2023/02/27 07:52:46;;;;;;;1.50;0.40;;;1.00;90.30;;;;;;5079001;28;20043;-90
2023/02/27 07:55:22;;;;;;;1.20;0.50;;;1.00;90.30;;;;;;5071313;28;20048;-89
2023/02/27 07:58:04;;;;;;;1.07;0.30;;;1.10;90.30;;;;;;5049289;28;20045;-89
2023/02/27 08:00:42;;;;;;;1.67;0.60;;;1.10;90.30;;;;;;5071837;28;20048;-90
2023/02/27 08:03:24;;;;;;;0.73;0.30;;;1.10;90.20;;;;;;5062235;28;20406;-89
2023/02/27 08:05:51;;;;;;;0.77;0.20;;;1.20;90.20;;;;;;5081434;28;20036;-89
2023/02/27 08:08:30;;;;;;;0.97;0.37;;;1.30;90.20;;;;;;5056009;28;20051;-89
2023/02/27 08:11:03;;;;;;;1.23;0.40;;;1.30;90.10;;;;;;5073008;28;20040;-89
2023/02/27 08:13:36;;;;;;;1.63;0.47;;;1.40;90.10;;;;;;5078067;28;20068;-89
2023/02/27 08:16:38;;;;;;;0.90;0.40;;;1.50;90.00;;;;;;5060961;28;20037;-90
2023/02/27 08:19:38;;;;;;;1.30;0.30;;;1.50;90.00;;;;;;5043087;28;20041;-90
2023/02/27 08:22:17;;;;;;;1.77;0.40;;;1.60;89.90;;;;;;5072531;28;20136;-89
2023/02/27 08:24:54;;;;;;;0.83;0.40;;;1.70;89.90;;;;;;5072069;28;20044;-89
2023/02/27 08:27:39;;;;;;;2.10;0.47;;;1.80;89.80;;;;;;5054296;28;20045;-90
2023/02/27 08:30:20;;;;;;;1.02;0.30;;;1.80;89.70;;;;;;5024152;28;20072;-89
2023/02/27 08:33:19;;;;;;;;;;;;;;;;;;;;;
2023/02/27 08:35:56;;;;;;;0.50;0.30;;;1.90;89.50;;;;;;5082142;28;20417;-90
2023/02/27 08:38:33;;;;;;;1.13;0.20;;;2.00;89.50;;;;;;5057922;28;20402;-89
2023/02/27 08:41:09;;;;;;;1.23;0.33;;;2.00;89.40;;;;;;5058210;28;20037;-89
2023/02/27 08:43:48;;;;;;;1.73;0.30;;;2.10;89.30;;;;;;5073248;28;20040;-89
2023/02/27 08:46:42;;;;;;;2.63;0.30;;;2.20;89.20;;;;;;5057982;28;20041;-93
2023/02/27 08:49:29;;;;;;;1.43;0.30;;;2.20;89.00;;;;;;5064029;28;20141;-88
2023/02/27 08:52:13;;;;;;;1.00;0.37;;;2.30;88.80;;;;;;5072168;28;20045;-93
2023/02/27 08:54:43;;;;;;;0.70;0.20;;;2.40;88.70;;;;;;5072673;28;20048;-92
2023/02/27 08:57:37;;;;;;;1.63;0.53;;;2.50;88.50;;;;;;5057379;28;20052;-92
2023/02/27 09:00:08;;;;;;;2.20;0.30;;;2.60;88.20;;;;;;5058388;28;20127;-92
2023/02/27 09:02:37;;;;;;;0.60;0.20;;;2.60;88.10;;;;;;5055800;28;20043;-85
2023/02/27 09:05:05;;;;;;;1.77;0.50;;;2.70;88.00;;;;;;5071839;28;20036;-85
2023/02/27 09:07:33;;;;;;;1.13;0.30;;;2.70;87.80;;;;;;5071921;28;20055;-86
2023/02/27 09:10:00;;;;;;;1.60;0.50;;;2.80;87.60;;;;;;5088505;28;20068;-86
2023/02/27 09:12:47;;;;;;;0.83;0.20;;;2.80;87.40;;;;;;5067702;28;20048;-92
2023/02/27 09:17:12;;;;;;;0.43;0.20;;;2.90;87.30;;;;;;5057719;28;20118;-87
2023/02/27 09:20:07;;;;;;;;;;;;;;;;;;;;;
2023/02/27 09:26:30;;;;;;;0.70;0.20;;;3.10;86.80;;;;;;5066453;28;20049;-91
2023/02/27 09:29:33;;;;;;;1.50;0.20;;;3.10;86.70;;;;;;5100250;28;20517;-89
2023/02/27 09:32:18;;;;;;;1.40;0.25;;;3.20;86.60;;;;;;5062215;28;20144;-89
2023/02/27 09:35:24;;;;;;;1.98;0.35;;;3.20;86.60;;;;;;5050571;28;20127;-89
2023/02/27 09:38:27;;;;;;;;;;;;;;;;;;;;;
2023/02/27 09:40:58;;;;;;;1.65;0.40;;;3.30;86.60;;;;;;5089070;28;20044;-91
2023/02/27 09:43:43;;;;;;;0.50;0.10;;;3.30;86.60;;;;;;5073164;28;20044;-86
2023/02/27 09:46:19;;;;;;;1.10;0.35;;;3.40;86.30;;;;;;5046318;28;20040;-85
2023/02/27 09:49:13;;;;;;;1.25;0.35;;;3.50;86.10;;;;;;5056417;28;20048;-89
2023/02/27 09:52:12;;;;;;;1.05;0.40;;;3.50;85.90;;;;;;5054376;28;20060;-87
2023/02/27 09:54:53;;;;;;;0.25;0.13;;;3.60;85.50;;;;;;5089184;28;20048;-89
2023/02/27 09:57:49;;;;;;;0.77;0.20;;;3.60;85.30;;;;;;5043528;28;20079;-85
2023/02/27 10:00:39;;;;;;;1.73;0.20;;;3.70;85.20;;;;;;5070621;28;20070;-85
2023/02/27 10:03:29;;;;;;;0.45;0.20;;;3.70;85.00;;;;;;5051979;28;20051;-84
2023/02/27 10:06:44;;;;;;;0.20;0.17;;;3.80;84.80;;;;;;5084995;28;20609;-87
2023/02/27 10:09:22;;;;;;;2.22;0.30;;;3.90;84.80;;;;;;5073716;28;20068;-85
2023/02/27 10:19:32;;;;;;;3.35;0.43;;;4.10;83.40;;;;;;5065070;28;20045;-87
2023/02/27 10:22:09;;;;;;;;;;;4.10;83.40;;;;;;5051834;28;20409;-87
2023/02/27 10:25:15;;;;;;;2.45;0.35;;;4.10;83.50;;;;;;5089922;28;19921;-88
2023/02/27 10:28:18;;;;;;;1.02;0.30;;;4.20;83.40;;;;;;5058850;28;20055;-85
2023/02/27 10:31:13;;;;;;;1.75;0.38;;;4.30;83.00;;;;;;5080657;28;20171;-84
2023/02/27 10:33:50;;;;;;;0.93;0.20;;;4.30;82.90;;;;;;5050488;28;20474;-84
2023/02/27 10:36:40;;;;;;;1.13;0.30;;;4.40;83.00;;;;;;5027645;28;20052;-89
2023/02/27 10:39:17;;;;;;;1.48;0.30;;;4.40;82.60;;;;;;4994472;28;20041;-90
2023/02/27 10:42:04;;;;;;;2.17;0.20;;;4.50;82.50;;;;;;5048750;28;20083;-88
2023/02/27 10:44:40;;;;;;;1.40;0.17;;;4.60;82.40;;;;;;5036466;28;20040;-86
2023/02/27 10:47:14;;;;;;;0.50;0.20;;;4.60;82.40;;;;;;5033036;28;20045;-84
2023/02/27 10:49:42;;;;;;;1.50;0.50;;;4.60;82.20;;;;;;5024616;28;20053;-85
2023/02/27 10:52:14;;;;;;;0.90;0.20;;;4.70;82.20;;;;;;5017804;28;20600;-83
2023/02/27 10:54:42;;;;;;;1.35;0.20;;;4.80;82.20;;;;;;5025048;28;20045;-85
2023/02/27 10:57:41;;;;;;;1.05;0.20;;;4.90;82.10;;;;;;5031586;28;20420;-81
2023/02/27 11:00:30;;;;;;;1.20;0.20;;;5.00;82.40;;;;;;5029495;28;20052;-84
2023/02/27 11:02:58;;;;;;;0.88;0.30;;;5.00;81.60;;;;;;5025009;28;20486;-82
2023/02/27 11:05:28;;;;;;;1.45;0.22;;;5.00;81.00;;;;;;5048509;28;20044;-86
2023/02/27 11:08:32;;;;;;;1.95;0.30;;;5.00;80.40;;;;;;5062176;28;20037;-83
2023/02/27 11:11:06;;;;;;;2.20;0.45;;;5.00;79.70;;;;;;5065634;28;20044;-85
2023/02/27 11:13:37;;;;;;;0.77;0.20;;;4.90;79.50;;;;;;5056685;28;20044;-81
2023/02/27 11:16:13;;;;;;;2.88;0.35;;;4.90;79.70;;;;;;5075119;28;20041;-84
2023/02/27 11:18:44;;;;;;;0.90;0.20;;;5.00;79.40;;;;;;5066498;28;20486;-83
2023/02/27 11:21:26;;;;;;;0.30;0.20;;;5.00;79.40;;;;;;5075122;28;20043;-84
2023/02/27 11:24:06;;;;;;;0.55;0.20;;;5.10;79.50;;;;;;5047853;28;20049;-84
2023/02/27 11:26:36;;;;;;;0.85;0.20;;;5.00;79.40;;;;;;5066507;28;20040;-83
2023/02/27 11:29:16;;;;;;;0.40;0.10;;;5.10;79.50;;;;;;5046242;28;20041;-85
2023/02/27 11:32:24;;;;;;;0.22;0.10;;;5.00;78.90;;;;;;5073617;28;20074;-87
2023/02/27 11:34:55;;;;;;;1.38;0.20;;;5.00;79.00;;;;;;5032490;28;20609;-88
2023/02/27 11:37:25;;;;;;;1.85;0.20;;;5.00;78.60;;;;;;5013370;28;20073;-85
2023/02/27 11:40:13;;;;;;;0.65;0.20;;;5.00;78.00;;;;;;5009433;28;20514;-88
2023/02/27 11:43:04;;;;;;;1.15;0.30;;;5.00;77.60;;;;;;5058020;28;20490;-88
2023/02/27 11:45:38;;;;;;;3.08;0.25;;;5.10;77.40;;;;;;5073001;28;20033;-86
2023/02/27 11:48:45;;;;;;;0.68;0.28;;;5.00;77.20;;;;;;5065351;28;20036;-86
2023/02/27 11:52:05;;;;;;;1.60;0.20;;;5.10;77.30;;;;;;5064969;28;20056;-87
2023/02/27 11:54:47;;;;;;;0.25;0.20;;;5.20;77.10;;;;;;5036114;28;20140;-85
2023/02/27 11:57:38;;;;;;;0.50;0.20;;;5.30;76.90;;;;;;5070402;28;20102;-87
2023/02/27 12:00:16;;;;;;;1.02;0.10;;;5.30;76.50;;;;;;5055915;28;20140;-86
2023/02/27 12:03:02;;;;;;;1.08;0.30;;;5.40;76.30;;;;;;5057501;28;20045;-86
2023/02/27 12:05:59;;;;;;;0.15;0.10;;;5.40;76.20;;;;;;5085702;28;20044;-89
2023/02/27 12:08:33;;;;;;;0.98;0.20;;;5.50;76.50;;;;;;5055755;28;20051;-89
2023/02/27 12:11:19;;;;;;;0.73;0.30;;;5.50;76.30;;;;;;5050572;28;20090;-88
2023/02/27 12:13:53;;;;;;;0.73;0.20;;;5.60;75.80;;;;;;5042570;28;20087;-88
2023/02/27 12:16:35;;;;;;;0.35;0.10;;;5.70;76.00;;;;;;5070571;28;20049;-90
2023/02/27 12:19:28;;;;;;;0.47;0.10;;;5.80;75.90;;;;;;5056199;28;20502;-88
2023/02/27 12:22:01;;;;;;;1.67;0.40;;;6.00;75.70;;;;;;5059271;28;20045;-89
2023/02/27 12:24:32;;;;;;;;;;;6.20;75.50;;;;;;5074337;28;20097;-90
2023/02/27 12:27:21;;;;;;;1.33;0.40;;;6.20;74.50;;;;;;5052723;28;19921;-90
2023/02/27 12:30:16;;;;;;;0.57;0.20;;;6.20;74.50;;;;;;5069633;28;20047;-90
2023/02/27 12:33:22;;;;;;;0.75;0.20;;;6.20;74.40;;;;;;5087996;28;20318;-91
2023/02/27 12:35:56;;;;;;;2.05;0.20;;;6.20;74.20;;;;;;5055963;28;20048;-91
2023/02/27 12:38:27;;;;;;;0.35;0.10;;;6.30;74.00;;;;;;5053409;28;20052;-90
2023/02/27 12:40:54;;;;;;;1.00;0.10;;;6.30;74.30;;;;;;5052806;28;20055;-90
2023/02/27 12:43:29;;;;;;;1.08;0.22;;;6.30;74.00;;;;;;5067205;28;20045;-90
2023/02/27 12:46:21;;;;;;;1.40;0.20;;;6.30;73.70;;;;;;5072697;28;20044;-90
2023/02/27 12:49:03;;;;;;;0.65;0.20;;;6.30;73.60;;;;;;5066223;28;20051;-90
2023/02/27 12:51:41;;;;;;;1.23;0.20;;;6.40;73.40;;;;;;5087409;28;20118;-91
2023/02/27 12:54:29;;;;;;;1.02;0.20;;;6.50;72.90;;;;;;5070724;28;20049;-91
2023/02/27 12:57:27;;;;;;;1.85;0.20;;;6.60;72.80;;;;;;5069475;28;20139;-91
2023/02/27 13:00:13;;;;;;;2.67;0.40;;;6.70;71.90;;;;;;5077572;28;20131;-90
2023/02/27 13:02:57;;;;;;;1.10;0.30;;;6.70;71.60;;;;;;5064874;28;20044;-90
2023/02/27 13:05:44;;;;;;;1.95;0.50;;;6.70;71.40;;;;;;5055159;28;20135;-90
2023/02/27 13:08:42;;;;;;;1.33;0.47;;;6.70;71.30;;;;;;5066086;28;20036;-90
2023/02/27 13:11:38;;;;;;;0.88;0.32;;;6.60;71.00;;;;;;5050996;28;20661;-91
2023/02/27 13:14:27;;;;;;;1.52;0.50;;;6.50;71.30;;;;;;5067184;28;20067;-90
2023/02/27 13:17:11;;;;;;;1.60;0.43;;;6.50;71.40;;;;;;5076688;28;20111;-87
2023/02/27 13:20:22;;;;;;;1.00;0.40;;;6.40;71.40;;;;;;5070427;28;20143;-84
2023/02/27 13:23:10;;;;;;;0.85;0.30;;;6.50;71.20;;;;;;5070005;28;20048;-89
2023/02/27 13:25:41;;;;;;;1.52;0.30;;;6.60;71.40;;;;;;5066094;28;20044;-88
2023/02/27 13:28:13;;;;;;;0.65;0.20;;;6.70;71.10;;;;;;5072769;28;20110;-81
2023/02/27 13:31:01;;;;;;;1.13;0.30;;;6.80;70.90;;;;;;5056465;28;20049;-80
2023/02/27 13:33:42;;;;;;;0.30;0.20;;;6.80;70.60;;;;;;5069498;28;20095;-89
2023/02/27 13:36:30;;;;;;;2.25;0.38;;;6.80;71.10;;;;;;5054097;28;20051;-87
2023/02/27 13:39:01;;;;;;;1.27;0.90;;;6.90;71.40;;;;;;5083222;28;20048;-85
2023/02/27 13:41:31;;;;;;;2.95;0.30;;;7.00;71.30;;;;;;5074330;28;20409;-84
2023/02/27 13:44:20;;;;;;;0.98;0.28;;;7.00;71.40;;;;;;5068701;28;20056;-83
2023/02/27 13:46:47;;;;;;;1.75;0.22;;;7.10;71.30;;;;;;5087505;28;20061;-84
2023/02/27 13:49:26;;;;;;;0.93;0.30;;;7.10;71.50;;;;;;5058394;28;20055;-85
2023/02/27 13:51:58;;;;;;;1.05;0.45;;;7.10;71.10;;;;;;5058461;28;20494;-85
2023/02/27 13:54:32;;;;;;;1.63;0.50;;;7.10;71.00;;;;;;5048776;28;20051;-89
2023/02/27 13:57:16;;;;;;;1.95;0.50;;;7.20;70.90;;;;;;5055373;28;20052;-90
2023/02/27 13:59:55;;;;;;;1.40;0.75;;;7.10;70.40;;;;;;5100610;28;20132;-79
2023/02/27 14:02:38;;;;;;;1.95;0.50;;;7.10;70.70;;;;;;5074234;28;20041;-81
2023/02/27 14:05:33;;;;;;;1.88;0.73;;;7.10;70.90;;;;;;5073660;28;20048;-80
2023/02/27 14:08:12;;;;;;;1.20;0.40;;;7.10;71.20;;;;;;5070909;28;20075;-81
2023/02/27 14:10:50;;;;;;;3.08;0.60;;;6.90;71.10;;;;;;5070774;28;20119;-80
2023/02/27 14:13:49;;;;;;;1.65;0.60;;;6.80;71.10;;;;;;5045133;28;20102;-80
2023/02/27 14:16:37;;;;;;;3.42;0.95;;;6.70;71.00;;;;;;5056887;28;20143;-81
2023/02/27 14:19:14;;;;;;;2.00;0.70;;;6.60;71.20;;;;;;5066280;28;20123;-81
2023/02/27 14:21:50;;;;;;;2.55;0.70;;;6.60;71.10;;;;;;5073909;28;20053;-80
2023/02/27 14:24:27;;;;;;;2.40;0.88;;;6.70;71.10;;;;;;5073969;28;20122;-82
2023/02/27 14:26:55;;;;;;;1.10;0.50;;;6.70;70.70;;;;;;5056750;28;20072;-81
2023/02/27 14:29:32;;;;;;;3.15;0.65;;;6.60;70.20;;;;;;5066286;28;20037;-81
2023/02/27 14:32:07;;;;;;;1.17;0.28;;;6.50;70.10;;;;;;5060322;28;20054;-81
2023/02/27 14:34:40;;;;;;;0.98;0.30;;;6.40;70.70;;;;;;5074783;28;20491;-81
2023/02/27 14:37:15;;;;;;;0.90;0.20;;;6.30;71.00;;;;;;5043551;28;20059;-81
2023/02/27 14:39:46;;;;;;;0.45;0.20;;;6.20;71.40;;;;;;5070016;28;20115;-82
2023/02/27 14:42:43;;;;;;;0.52;0.20;;;6.20;71.70;;;;;;5060062;28;20516;-81
2023/02/27 14:45:15;;;;;;;1.13;0.32;;;6.40;71.50;;;;;;5070928;28;20036;-83
2023/02/27 14:47:52;;;;;;;3.80;0.40;;;6.50;70.80;;;;;;5061408;28;20095;-82
2023/02/27 14:50:22;;;;;;;1.10;0.35;;;6.60;70.20;;;;;;5054047;28;20076;-82
2023/02/27 14:52:51;;;;;;;1.30;0.40;;;6.60;70.20;;;;;;5073460;28;20048;-83
2023/02/27 14:55:32;;;;;;;1.15;0.40;;;6.70;70.10;;;;;;5071080;28;20091;-82
2023/02/27 14:58:09;;;;;;;1.67;0.43;;;6.60;70.20;;;;;;5047004;28;20057;-82
2023/02/27 15:00:42;;;;;;;1.05;0.30;;;6.60;70.40;;;;;;5054325;28;20090;-82